sensor_id;sensor_type;location;lat;lon;timestamp;P1;durP1;ratioP1;P2;durP2;ratioP2
43990;SDS011;29654;50.784;20.604;2024-03-02T00:02:11;13.65;;;12.20;;
43990;SDS011;29654;50.784;20.604;2024-03-02T00:07:14;13.95;;;12.35;;
43990;SDS011;29654;50.784;20.604;2024-03-02T00:12:19;16.33;;;12.48;;
43990;SDS011;29654;50.784;20.604;2024-03-02T00:17:24;14.98;;;11.95;;
43990;SDS011;29654;50.784;20.604;2024-03-02T00:22:27;15.60;;;12.52;;
43990;SDS011;29654;50.784;20.604;2024-03-02T00:27:31;14.80;;;12.45;;
43990;SDS011;29654;50.784;20.604;2024-03-02T00:32:34;14.45;;;12.20;;
43990;SDS011;29654;50.784;20.604;2024-03-02T00:37:40;15.77;;;13.35;;
43990;SDS011;29654;50.784;20.604;2024-03-02T00:42:45;16.20;;;12.43;;
43990;SDS011;29654;50.784;20.604;2024-03-02T00:47:48;14.25;;;11.98;;
43990;SDS011;29654;50.784;20.604;2024-03-02T00:52:51;14.60;;;12.48;;
43990;SDS011;29654;50.784;20.604;2024-03-02T00:57:55;13.70;;;12.35;;
43990;SDS011;29654;50.784;20.604;2024-03-02T01:02:58;17.33;;;13.20;;
43990;SDS011;29654;50.784;20.604;2024-03-02T01:08:01;16.05;;;12.75;;
43990;SDS011;29654;50.784;20.604;2024-03-02T01:13:06;16.02;;;12.88;;
43990;SDS011;29654;50.784;20.604;2024-03-02T01:18:09;15.70;;;12.32;;
43990;SDS011;29654;50.784;20.604;2024-03-02T01:23:12;14.98;;;13.05;;
43990;SDS011;29654;50.784;20.604;2024-03-02T01:28:16;16.77;;;13.30;;
43990;SDS011;29654;50.784;20.604;2024-03-02T01:33:21;16.00;;;12.80;;
43990;SDS011;29654;50.784;20.604;2024-03-02T01:38:23;16.67;;;13.95;;
43990;SDS011;29654;50.784;20.604;2024-03-02T01:43:28;14.18;;;12.65;;
43990;SDS011;29654;50.784;20.604;2024-03-02T01:48:30;17.30;;;14.15;;
43990;SDS011;29654;50.784;20.604;2024-03-02T01:53:34;19.02;;;13.65;;
43990;SDS011;29654;50.784;20.604;2024-03-02T01:58:38;17.02;;;14.10;;
43990;SDS011;29654;50.784;20.604;2024-03-02T02:03:41;15.57;;;13.38;;
43990;SDS011;29654;50.784;20.604;2024-03-02T02:08:45;15.30;;;13.35;;
43990;SDS011;29654;50.784;20.604;2024-03-02T02:13:50;14.75;;;12.10;;
43990;SDS011;29654;50.784;20.604;2024-03-02T02:18:55;19.13;;;13.35;;
43990;SDS011;29654;50.784;20.604;2024-03-02T02:24:06;18.30;;;13.57;;
43990;SDS011;29654;50.784;20.604;2024-03-02T02:29:16;16.60;;;14.15;;
43990;SDS011;29654;50.784;20.604;2024-03-02T02:34:19;15.77;;;12.73;;
43990;SDS011;29654;50.784;20.604;2024-03-02T02:39:23;17.63;;;14.18;;
43990;SDS011;29654;50.784;20.604;2024-03-02T02:44:26;17.75;;;14.48;;
43990;SDS011;29654;50.784;20.604;2024-03-02T02:49:29;17.95;;;13.32;;
43990;SDS011;29654;50.784;20.604;2024-03-02T02:54:36;15.70;;;13.23;;
43990;SDS011;29654;50.784;20.604;2024-03-02T02:59:39;15.68;;;13.95;;
43990;SDS011;29654;50.784;20.604;2024-03-02T03:04:42;15.82;;;13.82;;
43990;SDS011;29654;50.784;20.604;2024-03-02T03:09:47;17.73;;;13.48;;
43990;SDS011;29654;50.784;20.604;2024-03-02T03:14:49;16.92;;;13.52;;
43990;SDS011;29654;50.784;20.604;2024-03-02T03:19:52;16.30;;;13.98;;
43990;SDS011;29654;50.784;20.604;2024-03-02T03:24:57;17.83;;;14.10;;
43990;SDS011;29654;50.784;20.604;2024-03-02T03:30:00;17.85;;;13.70;;
43990;SDS011;29654;50.784;20.604;2024-03-02T03:35:03;16.67;;;13.65;;
43990;SDS011;29654;50.784;20.604;2024-03-02T03:40:09;18.48;;;14.55;;
43990;SDS011;29654;50.784;20.604;2024-03-02T03:45:14;18.60;;;14.73;;
43990;SDS011;29654;50.784;20.604;2024-03-02T03:50:17;20.15;;;15.18;;
43990;SDS011;29654;50.784;20.604;2024-03-02T03:55:21;21.50;;;14.70;;
43990;SDS011;29654;50.784;20.604;2024-03-02T04:00:24;19.70;;;14.88;;
43990;SDS011;29654;50.784;20.604;2024-03-02T04:05:27;19.17;;;15.48;;
43990;SDS011;29654;50.784;20.604;2024-03-02T04:10:31;17.20;;;14.00;;
43990;SDS011;29654;50.784;20.604;2024-03-02T04:15:35;17.35;;;14.68;;
43990;SDS011;29654;50.784;20.604;2024-03-02T04:20:38;18.75;;;15.10;;
43990;SDS011;29654;50.784;20.604;2024-03-02T04:25:42;18.30;;;14.80;;
43990;SDS011;29654;50.784;20.604;2024-03-02T04:30:45;19.30;;;15.50;;
43990;SDS011;29654;50.784;20.604;2024-03-02T04:35:48;18.30;;;14.23;;
43990;SDS011;29654;50.784;20.604;2024-03-02T04:40:52;21.58;;;15.70;;
43990;SDS011;29654;50.784;20.604;2024-03-02T04:45:55;19.50;;;14.75;;
43990;SDS011;29654;50.784;20.604;2024-03-02T04:50:58;21.75;;;15.82;;
43990;SDS011;29654;50.784;20.604;2024-03-02T04:56:02;20.25;;;15.25;;
43990;SDS011;29654;50.784;20.604;2024-03-02T05:01:19;18.33;;;14.80;;
43990;SDS011;29654;50.784;20.604;2024-03-02T05:06:22;18.20;;;14.45;;
43990;SDS011;29654;50.784;20.604;2024-03-02T05:11:26;22.10;;;14.55;;
43990;SDS011;29654;50.784;20.604;2024-03-02T05:17:03;18.90;;;14.60;;
43990;SDS011;29654;50.784;20.604;2024-03-02T05:22:06;17.65;;;14.43;;
43990;SDS011;29654;50.784;20.604;2024-03-02T05:27:10;18.52;;;14.38;;
43990;SDS011;29654;50.784;20.604;2024-03-02T05:32:13;18.77;;;14.23;;
43990;SDS011;29654;50.784;20.604;2024-03-02T05:37:16;18.40;;;14.50;;
43990;SDS011;29654;50.784;20.604;2024-03-02T05:42:20;21.02;;;14.63;;
43990;SDS011;29654;50.784;20.604;2024-03-02T05:47:23;20.20;;;14.73;;
43990;SDS011;29654;50.784;20.604;2024-03-02T05:52:26;18.95;;;15.10;;
43990;SDS011;29654;50.784;20.604;2024-03-02T05:57:30;19.08;;;14.75;;
43990;SDS011;29654;50.784;20.604;2024-03-02T06:02:45;19.52;;;14.95;;
43990;SDS011;29654;50.784;20.604;2024-03-02T06:07:48;16.92;;;14.57;;
43990;SDS011;29654;50.784;20.604;2024-03-02T06:12:52;21.75;;;15.10;;
43990;SDS011;29654;50.784;20.604;2024-03-02T06:17:55;17.88;;;14.48;;
43990;SDS011;29654;50.784;20.604;2024-03-02T06:22:58;19.70;;;15.02;;
43990;SDS011;29654;50.784;20.604;2024-03-02T06:28:02;20.02;;;14.80;;
43990;SDS011;29654;50.784;20.604;2024-03-02T06:33:06;19.60;;;15.27;;
43990;SDS011;29654;50.784;20.604;2024-03-02T06:38:09;18.27;;;13.82;;
43990;SDS011;29654;50.784;20.604;2024-03-02T06:43:14;18.23;;;13.82;;
43990;SDS011;29654;50.784;20.604;2024-03-02T06:48:17;18.52;;;14.50;;
43990;SDS011;29654;50.784;20.604;2024-03-02T06:53:20;21.02;;;14.52;;
43990;SDS011;29654;50.784;20.604;2024-03-02T06:58:25;20.13;;;14.80;;
43990;SDS011;29654;50.784;20.604;2024-03-02T07:03:29;17.92;;;14.20;;
43990;SDS011;29654;50.784;20.604;2024-03-02T07:08:33;17.98;;;14.55;;
43990;SDS011;29654;50.784;20.604;2024-03-02T07:13:37;20.10;;;14.27;;
43990;SDS011;29654;50.784;20.604;2024-03-02T07:18:40;18.15;;;14.57;;
43990;SDS011;29654;50.784;20.604;2024-03-02T07:23:45;18.75;;;14.73;;
43990;SDS011;29654;50.784;20.604;2024-03-02T07:28:50;18.80;;;14.82;;
43990;SDS011;29654;50.784;20.604;2024-03-02T07:33:54;19.05;;;14.90;;
43990;SDS011;29654;50.784;20.604;2024-03-02T07:38:58;18.15;;;13.80;;
43990;SDS011;29654;50.784;20.604;2024-03-02T07:44:02;15.02;;;12.32;;
43990;SDS011;29654;50.784;20.604;2024-03-02T07:49:05;17.60;;;14.00;;
43990;SDS011;29654;50.784;20.604;2024-03-02T07:54:08;16.88;;;14.00;;
43990;SDS011;29654;50.784;20.604;2024-03-02T07:59:12;17.85;;;13.88;;
43990;SDS011;29654;50.784;20.604;2024-03-02T08:04:15;19.02;;;14.18;;
43990;SDS011;29654;50.784;20.604;2024-03-02T08:09:18;17.20;;;13.95;;
43990;SDS011;29654;50.784;20.604;2024-03-02T08:14:22;17.70;;;14.27;;
43990;SDS011;29654;50.784;20.604;2024-03-02T08:19:28;19.08;;;14.93;;
43990;SDS011;29654;50.784;20.604;2024-03-02T08:24:31;15.55;;;13.15;;
43990;SDS011;29654;50.784;20.604;2024-03-02T08:29:36;20.00;;;14.45;;
43990;SDS011;29654;50.784;20.604;2024-03-02T08:34:39;19.30;;;14.30;;
43990;SDS011;29654;50.784;20.604;2024-03-02T08:39:43;18.15;;;14.45;;
43990;SDS011;29654;50.784;20.604;2024-03-02T08:44:48;17.42;;;13.57;;
43990;SDS011;29654;50.784;20.604;2024-03-02T08:49:51;17.00;;;13.70;;
43990;SDS011;29654;50.784;20.604;2024-03-02T08:54:54;17.75;;;13.60;;
43990;SDS011;29654;50.784;20.604;2024-03-02T08:59:58;18.10;;;14.95;;
43990;SDS011;29654;50.784;20.604;2024-03-02T09:05:02;17.23;;;13.80;;
43990;SDS011;29654;50.784;20.604;2024-03-02T09:10:06;18.73;;;14.18;;
43990;SDS011;29654;50.784;20.604;2024-03-02T09:15:12;15.43;;;13.57;;
43990;SDS011;29654;50.784;20.604;2024-03-02T09:20:18;17.27;;;14.00;;
43990;SDS011;29654;50.784;20.604;2024-03-02T09:25:21;22.15;;;14.85;;
43990;SDS011;29654;50.784;20.604;2024-03-02T09:30:26;17.77;;;14.02;;
43990;SDS011;29654;50.784;20.604;2024-03-02T09:35:29;18.48;;;13.93;;
43990;SDS011;29654;50.784;20.604;2024-03-02T09:40:32;17.83;;;13.27;;
43990;SDS011;29654;50.784;20.604;2024-03-02T09:45:37;17.98;;;13.63;;
43990;SDS011;29654;50.784;20.604;2024-03-02T09:50:40;15.55;;;13.13;;
43990;SDS011;29654;50.784;20.604;2024-03-02T09:55:45;17.20;;;14.15;;
43990;SDS011;29654;50.784;20.604;2024-03-02T10:00:50;15.82;;;13.27;;
43990;SDS011;29654;50.784;20.604;2024-03-02T10:05:53;15.32;;;12.82;;
43990;SDS011;29654;50.784;20.604;2024-03-02T10:10:55;15.65;;;12.70;;
43990;SDS011;29654;50.784;20.604;2024-03-02T10:16:00;16.02;;;13.88;;
43990;SDS011;29654;50.784;20.604;2024-03-02T10:21:14;16.60;;;12.82;;
43990;SDS011;29654;50.784;20.604;2024-03-02T10:26:18;16.17;;;12.73;;
43990;SDS011;29654;50.784;20.604;2024-03-02T10:31:22;16.42;;;12.90;;
43990;SDS011;29654;50.784;20.604;2024-03-02T10:36:28;14.35;;;12.68;;
43990;SDS011;29654;50.784;20.604;2024-03-02T10:41:32;15.85;;;12.30;;
43990;SDS011;29654;50.784;20.604;2024-03-02T10:46:38;15.02;;;11.93;;
43990;SDS011;29654;50.784;20.604;2024-03-02T10:51:40;20.83;;;13.82;;
43990;SDS011;29654;50.784;20.604;2024-03-02T10:56:44;15.55;;;13.77;;
43990;SDS011;29654;50.784;20.604;2024-03-02T11:01:50;16.35;;;12.82;;
43990;SDS011;29654;50.784;20.604;2024-03-02T11:06:59;14.95;;;13.30;;
43990;SDS011;29654;50.784;20.604;2024-03-02T11:12:06;15.63;;;13.07;;
43990;SDS011;29654;50.784;20.604;2024-03-02T11:17:23;17.48;;;13.35;;
43990;SDS011;29654;50.784;20.604;2024-03-02T11:22:27;16.35;;;13.27;;
43990;SDS011;29654;50.784;20.604;2024-03-02T11:33:05;16.45;;;14.23;;
43990;SDS011;29654;50.784;20.604;2024-03-02T11:38:09;16.48;;;14.32;;
43990;SDS011;29654;50.784;20.604;2024-03-02T11:43:12;15.02;;;13.50;;
43990;SDS011;29654;50.784;20.604;2024-03-02T11:48:17;19.98;;;14.45;;
43990;SDS011;29654;50.784;20.604;2024-03-02T11:53:22;18.10;;;15.20;;
43990;SDS011;29654;50.784;20.604;2024-03-02T11:58:25;17.65;;;14.45;;
43990;SDS011;29654;50.784;20.604;2024-03-02T12:03:31;16.25;;;13.50;;
43990;SDS011;29654;50.784;20.604;2024-03-02T12:08:36;17.33;;;14.10;;
43990;SDS011;29654;50.784;20.604;2024-03-02T12:13:39;17.20;;;15.18;;
43990;SDS011;29654;50.784;20.604;2024-03-02T12:18:44;17.17;;;14.98;;
43990;SDS011;29654;50.784;20.604;2024-03-02T12:23:48;18.20;;;14.70;;
43990;SDS011;29654;50.784;20.604;2024-03-02T12:28:51;20.33;;;17.05;;
43990;SDS011;29654;50.784;20.604;2024-03-02T12:33:55;18.98;;;15.60;;
43990;SDS011;29654;50.784;20.604;2024-03-02T12:38:59;18.80;;;15.40;;
43990;SDS011;29654;50.784;20.604;2024-03-02T12:44:03;18.77;;;16.38;;
43990;SDS011;29654;50.784;20.604;2024-03-02T12:49:08;18.63;;;14.77;;
43990;SDS011;29654;50.784;20.604;2024-03-02T12:54:12;16.40;;;14.48;;
43990;SDS011;29654;50.784;20.604;2024-03-02T12:59:20;20.30;;;15.13;;
43990;SDS011;29654;50.784;20.604;2024-03-02T13:04:28;19.50;;;15.77;;
43990;SDS011;29654;50.784;20.604;2024-03-02T13:09:32;18.40;;;14.35;;
43990;SDS011;29654;50.784;20.604;2024-03-02T13:14:35;21.02;;;15.38;;
43990;SDS011;29654;50.784;20.604;2024-03-02T13:19:39;20.05;;;16.23;;
43990;SDS011;29654;50.784;20.604;2024-03-02T13:24:53;24.70;;;15.98;;
43990;SDS011;29654;50.784;20.604;2024-03-02T13:29:56;17.13;;;15.32;;
43990;SDS011;29654;50.784;20.604;2024-03-02T13:35:00;18.83;;;15.52;;
43990;SDS011;29654;50.784;20.604;2024-03-02T13:40:04;18.80;;;16.23;;
43990;SDS011;29654;50.784;20.604;2024-03-02T13:45:13;22.80;;;18.77;;
43990;SDS011;29654;50.784;20.604;2024-03-02T13:50:18;17.77;;;15.88;;
43990;SDS011;29654;50.784;20.604;2024-03-02T13:55:22;17.80;;;14.75;;
43990;SDS011;29654;50.784;20.604;2024-03-02T14:00:25;19.77;;;14.75;;
43990;SDS011;29654;50.784;20.604;2024-03-02T14:05:30;20.23;;;15.07;;
43990;SDS011;29654;50.784;20.604;2024-03-02T14:10:33;15.57;;;13.48;;
43990;SDS011;29654;50.784;20.604;2024-03-02T14:15:36;17.05;;;13.60;;
43990;SDS011;29654;50.784;20.604;2024-03-02T14:20:41;15.73;;;13.80;;
43990;SDS011;29654;50.784;20.604;2024-03-02T14:25:44;17.90;;;14.18;;
43990;SDS011;29654;50.784;20.604;2024-03-02T14:30:47;16.85;;;13.65;;
43990;SDS011;29654;50.784;20.604;2024-03-02T14:35:52;17.38;;;14.63;;
43990;SDS011;29654;50.784;20.604;2024-03-02T14:40:55;17.08;;;14.45;;
43990;SDS011;29654;50.784;20.604;2024-03-02T14:45:58;16.15;;;14.45;;
43990;SDS011;29654;50.784;20.604;2024-03-02T14:51:03;19.40;;;17.33;;
43990;SDS011;29654;50.784;20.604;2024-03-02T14:56:06;21.50;;;17.75;;
43990;SDS011;29654;50.784;20.604;2024-03-02T15:01:10;16.17;;;14.18;;
43990;SDS011;29654;50.784;20.604;2024-03-02T15:06:14;17.38;;;15.55;;
43990;SDS011;29654;50.784;20.604;2024-03-02T15:11:17;17.85;;;15.30;;
43990;SDS011;29654;50.784;20.604;2024-03-02T15:16:20;16.95;;;14.40;;
43990;SDS011;29654;50.784;20.604;2024-03-02T15:21:24;17.65;;;14.93;;
43990;SDS011;29654;50.784;20.604;2024-03-02T15:26:27;17.92;;;15.75;;
43990;SDS011;29654;50.784;20.604;2024-03-02T15:31:29;19.73;;;16.45;;
43990;SDS011;29654;50.784;20.604;2024-03-02T15:36:35;21.10;;;17.10;;
43990;SDS011;29654;50.784;20.604;2024-03-02T15:41:38;21.67;;;16.42;;
43990;SDS011;29654;50.784;20.604;2024-03-02T15:46:42;20.00;;;16.98;;
43990;SDS011;29654;50.784;20.604;2024-03-02T15:51:46;18.85;;;16.85;;
43990;SDS011;29654;50.784;20.604;2024-03-02T15:56:49;25.77;;;20.83;;
43990;SDS011;29654;50.784;20.604;2024-03-02T16:01:52;23.17;;;17.83;;
43990;SDS011;29654;50.784;20.604;2024-03-02T16:06:59;23.75;;;18.60;;
43990;SDS011;29654;50.784;20.604;2024-03-02T16:12:01;39.75;;;35.50;;
43990;SDS011;29654;50.784;20.604;2024-03-02T16:17:05;31.15;;;24.23;;
43990;SDS011;29654;50.784;20.604;2024-03-02T16:22:09;28.83;;;20.17;;
43990;SDS011;29654;50.784;20.604;2024-03-02T16:27:12;33.75;;;27.15;;
43990;SDS011;29654;50.784;20.604;2024-03-02T16:32:15;24.83;;;21.48;;
43990;SDS011;29654;50.784;20.604;2024-03-02T16:37:19;28.45;;;22.73;;
43990;SDS011;29654;50.784;20.604;2024-03-02T16:42:24;29.23;;;24.20;;
43990;SDS011;29654;50.784;20.604;2024-03-02T16:47:26;32.58;;;27.27;;
43990;SDS011;29654;50.784;20.604;2024-03-02T16:52:31;29.95;;;23.42;;
43990;SDS011;29654;50.784;20.604;2024-03-02T16:57:34;29.92;;;25.38;;
43990;SDS011;29654;50.784;20.604;2024-03-02T17:02:37;31.75;;;25.00;;
43990;SDS011;29654;50.784;20.604;2024-03-02T17:07:41;33.33;;;28.00;;
43990;SDS011;29654;50.784;20.604;2024-03-02T17:12:44;35.47;;;30.13;;
43990;SDS011;29654;50.784;20.604;2024-03-02T17:17:47;32.45;;;25.48;;
43990;SDS011;29654;50.784;20.604;2024-03-02T17:22:51;36.50;;;29.40;;
43990;SDS011;29654;50.784;20.604;2024-03-02T17:27:55;32.58;;;24.77;;
43990;SDS011;29654;50.784;20.604;2024-03-02T17:33:19;30.20;;;24.92;;
43990;SDS011;29654;50.784;20.604;2024-03-02T17:38:24;30.67;;;24.13;;
43990;SDS011;29654;50.784;20.604;2024-03-02T17:43:28;28.38;;;22.77;;
43990;SDS011;29654;50.784;20.604;2024-03-02T17:48:31;29.65;;;23.27;;
43990;SDS011;29654;50.784;20.604;2024-03-02T17:53:35;33.83;;;23.75;;
43990;SDS011;29654;50.784;20.604;2024-03-02T17:58:38;33.45;;;24.95;;
43990;SDS011;29654;50.784;20.604;2024-03-02T18:03:40;32.08;;;25.48;;
43990;SDS011;29654;50.784;20.604;2024-03-02T18:08:45;28.85;;;24.25;;
43990;SDS011;29654;50.784;20.604;2024-03-02T18:13:49;31.05;;;24.92;;
43990;SDS011;29654;50.784;20.604;2024-03-02T18:18:52;31.40;;;24.10;;
43990;SDS011;29654;50.784;20.604;2024-03-02T18:23:56;31.60;;;25.30;;
43990;SDS011;29654;50.784;20.604;2024-03-02T18:28:59;31.63;;;24.98;;
43990;SDS011;29654;50.784;20.604;2024-03-02T18:34:03;31.30;;;24.42;;
43990;SDS011;29654;50.784;20.604;2024-03-02T18:39:08;26.38;;;22.13;;
43990;SDS011;29654;50.784;20.604;2024-03-02T18:44:11;27.10;;;23.42;;
43990;SDS011;29654;50.784;20.604;2024-03-02T18:49:13;31.77;;;23.58;;
43990;SDS011;29654;50.784;20.604;2024-03-02T18:54:18;25.38;;;22.00;;
43990;SDS011;29654;50.784;20.604;2024-03-02T18:59:21;26.17;;;21.48;;
43990;SDS011;29654;50.784;20.604;2024-03-02T19:04:24;26.20;;;21.58;;
43990;SDS011;29654;50.784;20.604;2024-03-02T19:09:28;25.33;;;21.05;;
43990;SDS011;29654;50.784;20.604;2024-03-02T19:14:31;24.92;;;20.48;;
43990;SDS011;29654;50.784;20.604;2024-03-02T19:19:34;23.52;;;21.02;;
43990;SDS011;29654;50.784;20.604;2024-03-02T19:24:39;27.85;;;20.83;;
43990;SDS011;29654;50.784;20.604;2024-03-02T19:29:42;26.60;;;19.52;;
43990;SDS011;29654;50.784;20.604;2024-03-02T19:34:45;27.67;;;20.05;;
43990;SDS011;29654;50.784;20.604;2024-03-02T19:39:49;25.00;;;19.92;;
43990;SDS011;29654;50.784;20.604;2024-03-02T19:44:52;28.83;;;19.70;;
43990;SDS011;29654;50.784;20.604;2024-03-02T19:49:55;22.83;;;19.27;;
43990;SDS011;29654;50.784;20.604;2024-03-02T19:54:59;24.17;;;18.90;;
43990;SDS011;29654;50.784;20.604;2024-03-02T20:00:06;22.35;;;19.02;;
43990;SDS011;29654;50.784;20.604;2024-03-02T20:05:10;23.60;;;19.27;;
43990;SDS011;29654;50.784;20.604;2024-03-02T20:10:14;22.55;;;18.67;;
43990;SDS011;29654;50.784;20.604;2024-03-02T20:15:17;24.55;;;19.70;;
43990;SDS011;29654;50.784;20.604;2024-03-02T20:20:20;22.30;;;17.85;;
43990;SDS011;29654;50.784;20.604;2024-03-02T20:25:25;21.73;;;17.58;;
43990;SDS011;29654;50.784;20.604;2024-03-02T20:30:27;25.13;;;19.00;;
43990;SDS011;29654;50.784;20.604;2024-03-02T20:35:30;26.25;;;19.02;;
43990;SDS011;29654;50.784;20.604;2024-03-02T20:40:35;21.92;;;19.40;;
43990;SDS011;29654;50.784;20.604;2024-03-02T20:45:37;24.70;;;18.73;;
43990;SDS011;29654;50.784;20.604;2024-03-02T20:50:40;24.15;;;19.42;;
43990;SDS011;29654;50.784;20.604;2024-03-02T20:55:45;22.58;;;18.65;;
43990;SDS011;29654;50.784;20.604;2024-03-02T21:00:47;24.85;;;19.38;;
43990;SDS011;29654;50.784;20.604;2024-03-02T21:05:50;26.27;;;19.23;;
43990;SDS011;29654;50.784;20.604;2024-03-02T21:10:54;23.48;;;18.98;;
43990;SDS011;29654;50.784;20.604;2024-03-02T21:15:57;26.13;;;19.35;;
43990;SDS011;29654;50.784;20.604;2024-03-02T21:21:00;23.60;;;19.05;;
43990;SDS011;29654;50.784;20.604;2024-03-02T21:26:04;23.15;;;17.90;;
43990;SDS011;29654;50.784;20.604;2024-03-02T21:31:07;24.65;;;19.67;;
43990;SDS011;29654;50.784;20.604;2024-03-02T21:36:16;25.38;;;18.92;;
43990;SDS011;29654;50.784;20.604;2024-03-02T21:41:20;22.77;;;18.60;;
43990;SDS011;29654;50.784;20.604;2024-03-02T21:46:24;25.20;;;19.10;;
43990;SDS011;29654;50.784;20.604;2024-03-02T21:51:27;24.77;;;18.67;;
43990;SDS011;29654;50.784;20.604;2024-03-02T21:56:31;25.20;;;19.95;;
43990;SDS011;29654;50.784;20.604;2024-03-02T22:01:34;24.33;;;18.88;;
43990;SDS011;29654;50.784;20.604;2024-03-02T22:06:37;22.20;;;17.92;;
43990;SDS011;29654;50.784;20.604;2024-03-02T22:11:41;26.42;;;20.67;;
43990;SDS011;29654;50.784;20.604;2024-03-02T22:16:44;24.20;;;20.40;;
43990;SDS011;29654;50.784;20.604;2024-03-02T22:21:47;24.48;;;19.95;;
43990;SDS011;29654;50.784;20.604;2024-03-02T22:26:51;24.02;;;20.25;;
43990;SDS011;29654;50.784;20.604;2024-03-02T22:31:54;26.25;;;20.65;;
43990;SDS011;29654;50.784;20.604;2024-03-02T22:36:57;23.50;;;20.55;;
43990;SDS011;29654;50.784;20.604;2024-03-02T22:42:01;27.42;;;21.05;;
43990;SDS011;29654;50.784;20.604;2024-03-02T22:47:04;28.42;;;22.58;;
43990;SDS011;29654;50.784;20.604;2024-03-02T22:52:07;24.88;;;20.27;;
43990;SDS011;29654;50.784;20.604;2024-03-02T22:57:11;34.55;;;22.95;;
43990;SDS011;29654;50.784;20.604;2024-03-02T23:02:17;31.70;;;24.05;;
43990;SDS011;29654;50.784;20.604;2024-03-02T23:07:20;30.48;;;23.50;;
43990;SDS011;29654;50.784;20.604;2024-03-02T23:12:24;31.92;;;23.73;;
43990;SDS011;29654;50.784;20.604;2024-03-02T23:17:27;27.90;;;21.92;;
43990;SDS011;29654;50.784;20.604;2024-03-02T23:22:30;30.95;;;23.38;;
43990;SDS011;29654;50.784;20.604;2024-03-02T23:27:34;28.52;;;22.73;;
43990;SDS011;29654;50.784;20.604;2024-03-02T23:32:37;28.45;;;22.38;;
43990;SDS011;29654;50.784;20.604;2024-03-02T23:37:40;28.27;;;22.13;;
43990;SDS011;29654;50.784;20.604;2024-03-02T23:42:44;28.33;;;22.50;;
43990;SDS011;29654;50.784;20.604;2024-03-02T23:47:47;25.55;;;21.30;;
43990;SDS011;29654;50.784;20.604;2024-03-02T23:52:50;24.73;;;21.58;;
43990;SDS011;29654;50.784;20.604;2024-03-02T23:57:54;26.30;;;22.55;;
